createdAt,value
2022-08-02T00:00:02.843Z,408
2022-08-02T00:00:12.865Z,409
2022-08-02T00:00:22.904Z,410
2022-08-02T00:00:32.939Z,411
2022-08-02T00:00:42.972Z,412
2022-08-02T00:00:55.741Z,413
2022-08-02T00:01:02.977Z,414
2022-08-02T00:01:12.964Z,415
2022-08-02T00:01:23.016Z,417
2022-08-02T00:01:33.105Z,415
2022-08-02T00:01:42.988Z,416
2022-08-02T00:01:53.044Z,415
2022-08-02T00:02:03.077Z,414
2022-08-02T00:02:13.439Z,414
2022-08-02T00:02:23.013Z,415
2022-08-02T00:02:33.017Z,416
2022-08-02T00:02:43.024Z,415
2022-08-02T00:02:53.062Z,416
2022-08-02T00:03:03.156Z,418
2022-08-02T00:03:13.101Z,420
2022-08-02T00:03:23.368Z,421
2022-08-02T00:03:33.173Z,421
2022-08-02T00:03:43.101Z,422
2022-08-02T00:03:53.116Z,424
2022-08-02T00:04:03.121Z,423
2022-08-02T00:04:13.187Z,423
2022-08-02T00:04:23.153Z,424
2022-08-02T00:04:33.166Z,422
2022-08-02T00:04:43.206Z,423
2022-08-02T00:04:53.213Z,423
2022-08-02T00:05:03.201Z,423
2022-08-02T00:05:13.215Z,424
2022-08-02T00:05:23.236Z,421
2022-08-02T00:05:33.243Z,421
2022-08-02T00:05:43.245Z,422
2022-08-02T00:05:54.083Z,423
2022-08-02T00:06:03.269Z,423
2022-08-02T00:06:13.318Z,422
2022-08-02T00:06:23.296Z,421
2022-08-02T00:06:33.311Z,421
2022-08-02T00:06:43.420Z,422
2022-08-02T00:06:53.340Z,424
2022-08-02T00:07:03.341Z,425
2022-08-02T00:07:13.354Z,425
2022-08-02T00:07:23.366Z,425
2022-08-02T00:07:37.593Z,425
2022-08-02T00:07:43.384Z,424
2022-08-02T00:07:53.468Z,423
2022-08-02T00:08:03.407Z,425
2022-08-02T00:08:13.422Z,426
2022-08-02T00:08:23.448Z,423
2022-08-02T00:08:33.440Z,426
2022-08-02T00:08:43.462Z,431
2022-08-02T00:08:53.581Z,430
2022-08-02T00:09:03.489Z,429
2022-08-02T00:09:13.542Z,428
2022-08-02T00:09:23.506Z,431
2022-08-02T00:09:33.530Z,430
2022-08-02T00:09:43.557Z,428
2022-08-02T00:09:53.718Z,425
2022-08-02T00:10:03.564Z,426
2022-08-02T00:10:13.575Z,426
2022-08-02T00:10:23.582Z,428
2022-08-02T00:10:33.585Z,427
2022-08-02T00:10:43.608Z,427
2022-08-02T00:10:53.713Z,426
2022-08-02T00:11:03.627Z,428
2022-08-02T00:11:13.634Z,427
2022-08-02T00:11:23.645Z,427
2022-08-02T00:11:33.660Z,428
2022-08-02T00:11:43.672Z,428
2022-08-02T00:11:54.793Z,428
2022-08-02T00:12:03.698Z,427
2022-08-02T00:12:13.887Z,428
2022-08-02T00:12:23.727Z,427
2022-08-02T00:12:33.733Z,427
2022-08-02T00:12:43.745Z,428
2022-08-02T00:12:53.858Z,429
2022-08-02T00:13:13.783Z,431
2022-08-02T00:13:23.789Z,431
2022-08-02T00:13:33.822Z,433
2022-08-02T00:13:43.815Z,433
2022-08-02T00:13:53.988Z,432
2022-08-02T00:14:03.844Z,432
2022-08-02T00:14:13.858Z,433
2022-08-02T00:14:23.874Z,433
2022-08-02T00:14:33.881Z,432
2022-08-02T00:14:43.899Z,432
2022-08-02T00:14:53.997Z,432
2022-08-02T00:15:03.916Z,430
2022-08-02T00:15:16.063Z,430
2022-08-02T00:15:23.937Z,431
2022-08-02T00:15:33.979Z,431
2022-08-02T00:15:43.975Z,430
2022-08-02T00:15:54.048Z,428
2022-08-02T00:16:03.995Z,428
2022-08-02T00:16:16.945Z,428
2022-08-02T00:16:37.909Z,430
2022-08-02T00:16:38.219Z,429
2022-08-02T00:16:44.029Z,429
2022-08-02T00:16:54.059Z,428
2022-08-02T00:17:04.053Z,427
2022-08-02T00:17:14.066Z,426
2022-08-02T00:17:24.077Z,427
2022-08-02T00:17:34.100Z,427
2022-08-02T00:17:44.113Z,425
2022-08-02T00:17:54.194Z,422
2022-08-02T00:18:04.131Z,422
2022-08-02T00:18:14.214Z,422
2022-08-02T00:18:24.152Z,422
2022-08-02T00:18:34.176Z,423
2022-08-02T00:18:44.175Z,422
2022-08-02T00:18:54.225Z,422
2022-08-02T00:19:04.212Z,420
2022-08-02T00:19:14.211Z,420
2022-08-02T00:19:24.219Z,419
2022-08-02T00:19:34.254Z,418
2022-08-02T00:19:54.270Z,419
2022-08-02T00:20:04.278Z,420
2022-08-02T00:20:14.287Z,421
2022-08-02T00:20:24.315Z,422
2022-08-02T00:20:34.331Z,422
2022-08-02T00:20:44.366Z,420
2022-08-02T00:20:54.349Z,420
2022-08-02T00:21:04.358Z,421
2022-08-02T00:21:14.391Z,422
2022-08-02T00:21:24.436Z,423
2022-08-02T00:21:34.390Z,423
2022-08-02T00:21:44.415Z,422
2022-08-02T00:21:54.407Z,423
2022-08-02T00:22:04.511Z,424
2022-08-02T00:22:14.838Z,424
2022-08-02T00:22:24.459Z,423
2022-08-02T00:22:34.474Z,422
2022-08-02T00:22:44.489Z,421
2022-08-02T00:22:54.484Z,422
2022-08-02T00:23:04.515Z,422
2022-08-02T00:23:14.520Z,423
2022-08-02T00:23:24.539Z,423
2022-08-02T00:23:34.539Z,423
2022-08-02T00:24:19.512Z,423
2022-08-02T00:24:28.829Z,422
2022-08-02T00:24:29.176Z,422
2022-08-02T00:24:29.325Z,423
2022-08-02T00:24:30.338Z,421
2022-08-02T00:24:34.612Z,421
2022-08-02T00:24:44.664Z,421
2022-08-02T00:24:54.641Z,420
2022-08-02T00:25:04.649Z,420
2022-08-02T00:25:14.659Z,420
2022-08-02T00:25:24.665Z,419
2022-08-02T00:25:34.738Z,418
2022-08-02T00:25:54.928Z,419
2022-08-02T00:25:55.934Z,419
2022-08-02T00:26:04.716Z,417
2022-08-02T00:26:14.733Z,418
2022-08-02T00:26:24.743Z,418
2022-08-02T00:26:34.773Z,420
2022-08-02T00:26:44.795Z,420
2022-08-02T00:26:54.755Z,420
2022-08-02T00:27:05.029Z,421
2022-08-02T00:27:14.886Z,420
2022-08-02T00:27:24.803Z,420
2022-08-02T00:27:34.810Z,420
2022-08-02T00:27:44.828Z,420
2022-08-02T00:27:54.827Z,420
2022-08-02T00:28:04.855Z,421
2022-08-02T00:28:14.886Z,420
2022-08-02T00:28:34.890Z,420
2022-08-02T00:28:44.903Z,418
2022-08-02T00:28:54.910Z,416
2022-08-02T00:29:04.943Z,417
2022-08-02T00:29:14.940Z,418
2022-08-02T00:29:24.952Z,419
2022-08-02T00:29:34.962Z,419
2022-08-02T00:29:52.551Z,419
2022-08-02T00:29:54.969Z,419
2022-08-02T00:30:04.983Z,419
2022-08-02T00:30:14.995Z,419
2022-08-02T00:30:25.009Z,419
2022-08-02T00:30:35.020Z,419
2022-08-02T00:30:45.029Z,419
2022-08-02T00:30:55.034Z,419
2022-08-02T00:31:05.070Z,420
2022-08-02T00:31:15.121Z,421
2022-08-02T00:31:25.088Z,421
2022-08-02T00:31:35.101Z,421
2022-08-02T00:31:45.108Z,422
2022-08-02T00:31:55.115Z,422
2022-08-02T00:32:05.137Z,422
2022-08-02T00:32:15.196Z,421
2022-08-02T00:32:25.162Z,419
2022-08-02T00:32:35.175Z,419
2022-08-02T00:32:45.188Z,418
2022-08-02T00:32:55.197Z,419
2022-08-02T00:33:05.213Z,418
2022-08-02T00:33:15.233Z,419
2022-08-02T00:34:05.593Z,419
2022-08-02T00:34:05.649Z,419
2022-08-02T00:34:26.872Z,419
2022-08-02T00:34:27.748Z,418
2022-08-02T00:34:29.206Z,418
2022-08-02T00:34:30.168Z,418
2022-08-02T00:34:30.282Z,418
2022-08-02T00:34:37.910Z,415
2022-08-02T00:34:45.333Z,415
2022-08-02T00:34:55.342Z,416
2022-08-02T00:35:05.353Z,416
2022-08-02T00:35:15.382Z,417
2022-08-02T00:35:25.388Z,419
2022-08-02T00:35:35.400Z,419
2022-08-02T00:35:45.409Z,417
2022-08-02T00:35:55.401Z,419
2022-08-02T00:36:05.428Z,421
2022-08-02T00:36:15.437Z,419
2022-08-02T00:36:25.452Z,419
2022-08-02T00:36:35.462Z,419
2022-08-02T00:36:45.565Z,419
2022-08-02T00:36:55.464Z,419
2022-08-02T00:37:05.501Z,418
2022-08-02T00:37:15.572Z,419
2022-08-02T00:37:25.512Z,419
2022-08-02T00:37:35.540Z,420
2022-08-02T00:37:45.540Z,418
2022-08-02T00:37:55.546Z,419
2022-08-02T00:38:05.567Z,420
2022-08-02T00:38:15.591Z,420
2022-08-02T00:38:25.592Z,419
2022-08-02T00:38:35.610Z,420
2022-08-02T00:38:45.616Z,419
2022-08-02T00:38:55.621Z,421
2022-08-02T00:39:05.640Z,420
2022-08-02T00:39:33.619Z,420
2022-08-02T00:39:34.177Z,421
2022-08-02T00:39:35.909Z,421
2022-08-02T00:39:45.678Z,422
2022-08-02T00:39:55.694Z,421
2022-08-02T00:40:05.758Z,422
2022-08-02T00:40:15.724Z,422
2022-08-02T00:40:25.829Z,421
2022-08-02T00:40:35.740Z,423
2022-08-02T00:40:45.814Z,425
2022-08-02T00:40:58.143Z,426
2022-08-02T00:41:05.770Z,424
2022-08-02T00:41:15.781Z,423
2022-08-02T00:41:25.826Z,423
2022-08-02T00:41:35.804Z,423
2022-08-02T00:41:45.820Z,422
2022-08-02T00:41:55.835Z,422
2022-08-02T00:42:05.879Z,423
2022-08-02T00:42:15.861Z,422
2022-08-02T00:42:25.875Z,423
2022-08-02T00:42:35.971Z,424
2022-08-02T00:42:45.891Z,424
2022-08-02T00:42:55.896Z,422
2022-08-02T00:43:05.915Z,422
2022-08-02T00:43:15.932Z,421
2022-08-02T00:43:25.984Z,421
2022-08-02T00:43:35.951Z,421
2022-08-02T00:43:45.955Z,422
2022-08-02T00:43:55.969Z,422
2022-08-02T00:44:05.981Z,422
2022-08-02T00:44:15.995Z,422
2022-08-02T00:44:26.007Z,421
2022-08-02T00:44:36.033Z,419
2022-08-02T00:44:46.036Z,419
2022-08-02T00:44:56.043Z,419
2022-08-02T00:45:06.057Z,420
2022-08-02T00:45:16.068Z,421
2022-08-02T00:45:58.592Z,423
2022-08-02T00:46:02.155Z,424
2022-08-02T00:46:02.189Z,424
2022-08-02T00:46:02.229Z,424
2022-08-02T00:46:06.113Z,422
2022-08-02T00:46:16.125Z,424
2022-08-02T00:46:26.155Z,424
2022-08-02T00:46:36.152Z,423
2022-08-02T00:46:46.176Z,421
2022-08-02T00:46:56.169Z,422
2022-08-02T00:47:06.189Z,423
2022-08-02T00:47:19.631Z,423
2022-08-02T00:47:26.268Z,424
2022-08-02T00:47:36.229Z,423
2022-08-02T00:47:46.253Z,421
2022-08-02T00:47:56.245Z,421
2022-08-02T00:48:06.304Z,422
2022-08-02T00:48:16.289Z,426
2022-08-02T00:48:26.285Z,435
2022-08-02T00:48:36.315Z,434
2022-08-02T00:48:46.304Z,428
2022-08-02T00:49:06.418Z,429
2022-08-02T00:49:16.748Z,429
2022-08-02T00:49:36.587Z,430
2022-08-02T00:49:46.376Z,429
2022-08-02T00:49:56.387Z,428
2022-08-02T00:50:06.405Z,428
2022-08-02T00:50:16.410Z,427
2022-08-02T00:50:26.427Z,425
2022-08-02T00:50:36.460Z,425
2022-08-02T00:50:46.448Z,422
2022-08-02T00:50:56.464Z,419
2022-08-02T00:51:06.477Z,416
2022-08-02T00:51:16.491Z,417
2022-08-02T00:51:26.500Z,418
2022-08-02T00:51:36.508Z,419
2022-08-02T00:51:46.518Z,418
2022-08-02T00:51:56.526Z,419
2022-08-02T00:52:06.657Z,420
2022-08-02T00:52:16.559Z,420
2022-08-02T00:52:26.572Z,421
2022-08-02T00:52:36.579Z,422
2022-08-02T00:52:46.598Z,423
2022-08-02T00:52:56.602Z,423
2022-08-02T00:53:06.620Z,423
2022-08-02T00:53:16.632Z,423
2022-08-02T00:53:26.671Z,426
2022-08-02T00:53:36.658Z,424
2022-08-02T00:53:46.671Z,425
2022-08-02T00:53:56.674Z,425
2022-08-02T00:54:06.764Z,424
2022-08-02T00:54:16.707Z,424
2022-08-02T00:54:26.729Z,424
2022-08-02T00:54:36.730Z,426
2022-08-02T00:54:46.746Z,429
2022-08-02T00:54:56.765Z,430
2022-08-02T00:55:06.891Z,430
2022-08-02T00:55:17.482Z,430
2022-08-02T00:55:31.187Z,429
2022-08-02T00:55:36.792Z,430
2022-08-02T00:55:46.805Z,431
2022-08-02T00:55:56.815Z,429
2022-08-02T00:56:06.863Z,428
2022-08-02T00:56:16.841Z,426
2022-08-02T00:56:26.949Z,425
2022-08-02T00:56:36.878Z,426
2022-08-02T00:56:49.710Z,427
2022-08-02T00:56:56.894Z,428
2022-08-02T00:57:06.898Z,426
2022-08-02T00:57:16.918Z,426
2022-08-02T00:57:26.923Z,427
2022-08-02T00:57:36.933Z,427
2022-08-02T00:57:46.947Z,427
2022-08-02T00:57:56.956Z,427
2022-08-02T00:58:07.004Z,427
2022-08-02T00:58:16.988Z,428
2022-08-02T00:58:26.994Z,428
2022-08-02T00:58:37.008Z,427
2022-08-02T00:58:47.018Z,428
2022-08-02T00:58:57.036Z,426
2022-08-02T00:59:07.048Z,426
2022-08-02T00:59:17.072Z,426
2022-08-02T00:59:27.069Z,426
2022-08-02T00:59:37.102Z,426
2022-08-02T00:59:47.091Z,425
2022-08-02T00:59:57.104Z,424
2022-08-02T01:00:07.124Z,423
2022-08-02T01:00:17.132Z,422
2022-08-02T01:00:30.004Z,423
2022-08-02T01:00:37.158Z,423
2022-08-02T01:00:47.251Z,423
2022-08-02T01:00:57.175Z,423
2022-08-02T01:01:07.265Z,424
2022-08-02T01:01:17.305Z,424
2022-08-02T01:01:27.309Z,426
2022-08-02T01:01:37.277Z,427
2022-08-02T01:01:56.740Z,428
2022-08-02T01:01:58.338Z,428
2022-08-02T01:02:07.350Z,428
2022-08-02T01:02:17.695Z,430
2022-08-02T01:02:27.283Z,430
2022-08-02T01:02:37.298Z,429
2022-08-02T01:02:47.305Z,429
2022-08-02T01:02:57.321Z,428
2022-08-02T01:03:07.334Z,429
2022-08-02T01:03:17.342Z,428
2022-08-02T01:03:27.353Z,430
2022-08-02T01:03:37.370Z,430
2022-08-02T01:03:47.378Z,430
2022-08-02T01:03:57.404Z,428
2022-08-02T01:04:07.413Z,429
2022-08-02T01:04:17.482Z,428
2022-08-02T01:04:37.451Z,427
2022-08-02T01:04:47.452Z,427
2022-08-02T01:04:57.481Z,425
2022-08-02T01:05:07.481Z,425
2022-08-02T01:05:17.497Z,425
2022-08-02T01:05:27.509Z,426
2022-08-02T01:06:02.303Z,428
2022-08-02T01:06:10.110Z,427
2022-08-02T01:06:11.053Z,425
2022-08-02T01:06:11.399Z,426
2022-08-02T01:06:17.561Z,425
2022-08-02T01:06:27.629Z,426
2022-08-02T01:06:37.662Z,425
2022-08-02T01:06:47.597Z,424
2022-08-02T01:06:57.612Z,424
2022-08-02T01:07:12.057Z,422
2022-08-02T01:07:17.630Z,423
2022-08-02T01:07:27.642Z,424
2022-08-02T01:07:37.677Z,424
2022-08-02T01:07:47.668Z,424
2022-08-02T01:07:57.682Z,423
2022-08-02T01:08:07.689Z,422
2022-08-02T01:08:17.710Z,422
2022-08-02T01:08:29.332Z,421
2022-08-02T01:08:37.780Z,421
2022-08-02T01:08:47.731Z,420
2022-08-02T01:08:57.852Z,420
2022-08-02T01:09:07.756Z,421
2022-08-02T01:09:17.819Z,421
2022-08-02T01:09:27.800Z,421
2022-08-02T01:09:37.798Z,420
2022-08-02T01:09:47.814Z,420
2022-08-02T01:09:58.295Z,421
2022-08-02T01:10:07.833Z,420
2022-08-02T01:10:17.926Z,418
2022-08-02T01:10:27.858Z,420
2022-08-02T01:10:37.869Z,420
2022-08-02T01:10:47.897Z,421
2022-08-02T01:10:57.893Z,419
2022-08-02T01:11:07.910Z,420
2022-08-02T01:11:17.923Z,421
2022-08-02T01:11:27.934Z,419
2022-08-02T01:11:37.953Z,419
2022-08-02T01:11:47.973Z,417
2022-08-02T01:11:57.971Z,417
2022-08-02T01:12:08.171Z,418
2022-08-02T01:12:18.010Z,417
2022-08-02T01:12:28.013Z,418
2022-08-02T01:12:38.019Z,421
2022-08-02T01:12:48.049Z,421
2022-08-02T01:12:58.040Z,423
2022-08-02T01:13:08.059Z,424
2022-08-02T01:13:18.068Z,424
2022-08-02T01:13:28.084Z,424
2022-08-02T01:13:38.101Z,425
2022-08-02T01:13:48.099Z,427
2022-08-02T01:13:58.115Z,426
2022-08-02T01:14:08.126Z,424
2022-08-02T01:14:18.222Z,422
2022-08-02T01:14:28.154Z,422
2022-08-02T01:14:38.184Z,423
2022-08-02T01:14:48.182Z,422
2022-08-02T01:14:58.298Z,422
2022-08-02T01:15:08.206Z,422
2022-08-02T01:15:18.214Z,422
2022-08-02T01:15:36.085Z,420
2022-08-02T01:15:38.227Z,419
2022-08-02T01:15:48.278Z,418
2022-08-02T01:15:58.249Z,418
2022-08-02T01:16:08.269Z,418
2022-08-02T01:16:18.278Z,418
2022-08-02T01:16:28.307Z,420
2022-08-02T01:16:38.299Z,422
2022-08-02T01:16:48.322Z,419
2022-08-02T01:16:58.363Z,420
2022-08-02T01:17:08.373Z,420
2022-08-02T01:17:18.398Z,419
2022-08-02T01:17:28.367Z,417
2022-08-02T01:17:38.372Z,419
2022-08-02T01:17:48.387Z,418
2022-08-02T01:17:58.459Z,420
2022-08-02T01:18:08.407Z,420
2022-08-02T01:18:18.495Z,420
2022-08-02T01:18:28.438Z,420
2022-08-02T01:18:38.448Z,423
2022-08-02T01:18:48.497Z,419
2022-08-02T01:18:58.479Z,418
2022-08-02T01:19:08.483Z,418
2022-08-02T01:19:18.492Z,420
2022-08-02T01:19:28.508Z,421
2022-08-02T01:19:38.517Z,420
2022-08-02T01:19:48.526Z,420
2022-08-02T01:19:58.553Z,419
2022-08-02T01:20:08.548Z,419
2022-08-02T01:20:18.563Z,418
2022-08-02T01:20:28.587Z,418
2022-08-02T01:20:38.590Z,418
2022-08-02T01:20:48.605Z,418
2022-08-02T01:20:58.651Z,420
2022-08-02T01:21:08.628Z,420
2022-08-02T01:21:18.637Z,419
2022-08-02T01:21:28.653Z,419
2022-08-02T01:21:38.666Z,420
2022-08-02T01:21:48.693Z,420
2022-08-02T01:21:58.695Z,421
2022-08-02T01:22:09.260Z,421
2022-08-02T01:22:18.715Z,423
2022-08-02T01:22:59.623Z,422
2022-08-02T01:22:59.624Z,423
2022-08-02T01:23:00.956Z,424
2022-08-02T01:23:01.677Z,423
2022-08-02T01:23:08.767Z,425
2022-08-02T01:23:18.790Z,425
2022-08-02T01:23:28.796Z,424
2022-08-02T01:23:38.819Z,423
2022-08-02T01:23:48.830Z,423
2022-08-02T01:23:58.845Z,422
2022-08-02T01:24:08.849Z,423
2022-08-02T01:24:18.861Z,422
2022-08-02T01:24:28.889Z,423
2022-08-02T01:24:38.903Z,423
2022-08-02T01:24:48.899Z,421
2022-08-02T01:24:58.921Z,420
2022-08-02T01:25:08.934Z,421
2022-08-02T01:25:18.966Z,422
2022-08-02T01:25:28.959Z,422
2022-08-02T01:25:38.965Z,420
2022-08-02T01:25:49.057Z,419
2022-08-02T01:25:58.991Z,420
2022-08-02T01:26:09.014Z,418
2022-08-02T01:26:19.012Z,418
2022-08-02T01:26:29.022Z,420
2022-08-02T01:26:39.040Z,418
2022-08-02T01:26:49.063Z,419
2022-08-02T01:26:59.067Z,421
2022-08-02T01:27:09.079Z,422
2022-08-02T01:27:19.116Z,423
2022-08-02T01:27:29.106Z,423
2022-08-02T01:27:39.111Z,423
2022-08-02T01:27:49.125Z,423
2022-08-02T01:27:59.209Z,423
2022-08-02T01:28:09.147Z,424
2022-08-02T01:28:19.203Z,424
2022-08-02T01:28:29.182Z,424
2022-08-02T01:28:39.195Z,423
2022-08-02T01:28:49.208Z,424
2022-08-02T01:28:59.272Z,423
2022-08-02T01:29:09.260Z,421
2022-08-02T01:29:19.235Z,420
2022-08-02T01:29:29.247Z,418
2022-08-02T01:29:39.266Z,418
2022-08-02T01:29:49.269Z,419
2022-08-02T01:29:59.337Z,420
2022-08-02T01:30:09.289Z,420
2022-08-02T01:30:19.307Z,420
2022-08-02T01:30:29.317Z,420
2022-08-02T01:30:39.334Z,419
2022-08-02T01:30:49.345Z,419
2022-08-02T01:30:59.354Z,418
2022-08-02T01:31:09.471Z,415
2022-08-02T01:31:19.388Z,418
2022-08-02T01:31:29.385Z,418
2022-08-02T01:31:39.402Z,419
2022-08-02T01:31:49.505Z,419
2022-08-02T01:31:59.442Z,420
2022-08-02T01:32:09.823Z,423
2022-08-02T01:32:19.450Z,425
2022-08-02T01:32:29.459Z,427
2022-08-02T01:32:39.484Z,428
2022-08-02T01:32:49.484Z,429
2022-08-02T01:32:59.495Z,428
2022-08-02T01:33:09.507Z,427
2022-08-02T01:33:19.517Z,427
2022-08-02T01:33:29.535Z,426
2022-08-02T01:33:39.560Z,425
2022-08-02T01:33:49.564Z,426
2022-08-02T01:33:59.578Z,425
2022-08-02T01:34:09.688Z,424
2022-08-02T01:34:19.599Z,424
2022-08-02T01:34:29.603Z,423
2022-08-02T01:34:39.617Z,423
2022-08-02T01:34:49.651Z,423
2022-08-02T01:34:59.646Z,423
2022-08-02T01:35:09.698Z,422
2022-08-02T01:35:19.663Z,421
2022-08-02T01:35:29.678Z,420
2022-08-02T01:35:50.520Z,421
2022-08-02T01:35:51.249Z,421
2022-08-02T01:35:59.705Z,421
2022-08-02T01:36:09.803Z,421
2022-08-02T01:36:19.733Z,422
2022-08-02T01:36:29.781Z,421
2022-08-02T01:36:39.755Z,420
2022-08-02T01:36:49.764Z,420
2022-08-02T01:36:59.787Z,422
2022-08-02T01:37:09.789Z,421
2022-08-02T01:37:19.803Z,422
2022-08-02T01:37:29.821Z,422
2022-08-02T01:37:39.832Z,421
2022-08-02T01:37:49.847Z,422
2022-08-02T01:38:09.926Z,423
2022-08-02T01:38:19.873Z,424
2022-08-02T01:38:29.892Z,423
2022-08-02T01:38:39.901Z,422
2022-08-02T01:38:49.933Z,422
2022-08-02T01:38:59.928Z,423
2022-08-02T01:39:09.936Z,423
2022-08-02T01:39:26.867Z,425
2022-08-02T01:39:32.164Z,426
2022-08-02T01:39:39.976Z,426
2022-08-02T01:39:49.984Z,425
2022-08-02T01:40:00.147Z,423
2022-08-02T01:40:10.011Z,423
2022-08-02T01:40:20.025Z,423
2022-08-02T01:40:30.107Z,422
2022-08-02T01:40:40.058Z,422
2022-08-02T01:40:50.069Z,420
2022-08-02T01:41:00.116Z,420
2022-08-02T01:41:10.099Z,419
2022-08-02T01:41:20.098Z,419
2022-08-02T01:41:30.107Z,419
2022-08-02T01:41:40.148Z,418
2022-08-02T01:41:50.137Z,419
2022-08-02T01:42:00.146Z,420
2022-08-02T01:42:10.565Z,419
2022-08-02T01:42:20.165Z,419
2022-08-02T01:42:30.176Z,419
2022-08-02T01:42:40.186Z,421
2022-08-02T01:42:50.208Z,416
2022-08-02T01:43:00.220Z,417
2022-08-02T01:43:11.501Z,415
2022-08-02T01:43:20.239Z,422
2022-08-02T01:43:30.252Z,423
2022-08-02T01:43:50.282Z,422
2022-08-02T01:44:00.293Z,421
2022-08-02T01:44:10.313Z,418
2022-08-02T01:44:20.319Z,421
2022-08-02T01:44:30.320Z,419
2022-08-02T01:44:40.347Z,419
2022-08-02T01:44:50.341Z,419
2022-08-02T01:45:00.357Z,420
2022-08-02T01:45:10.366Z,422
2022-08-02T01:45:20.378Z,421
2022-08-02T01:45:30.393Z,421
2022-08-02T01:45:40.405Z,421
2022-08-02T01:45:50.413Z,420
2022-08-02T01:46:00.424Z,418
2022-08-02T01:46:10.444Z,418
2022-08-02T01:46:20.463Z,418
2022-08-02T01:46:30.475Z,418
2022-08-02T01:46:40.475Z,418
2022-08-02T01:46:50.494Z,420
2022-08-02T01:47:00.515Z,421
2022-08-02T01:47:10.512Z,421
2022-08-02T01:47:20.524Z,421
2022-08-02T01:47:30.538Z,423
2022-08-02T01:47:40.557Z,423
2022-08-02T01:47:50.566Z,423
2022-08-02T01:48:00.615Z,422
2022-08-02T01:48:10.587Z,420
2022-08-02T01:48:20.608Z,421
2022-08-02T01:48:30.619Z,421
2022-08-02T01:48:40.629Z,422
2022-08-02T01:48:50.705Z,423
2022-08-02T01:49:00.732Z,425
2022-08-02T01:49:10.775Z,425
2022-08-02T01:49:20.760Z,423
2022-08-02T01:49:30.811Z,422
2022-08-02T01:49:40.780Z,421
2022-08-02T01:49:50.739Z,419
2022-08-02T01:50:00.745Z,419
2022-08-02T01:50:10.743Z,419
2022-08-02T01:50:20.750Z,417
2022-08-02T01:50:30.763Z,417
2022-08-02T01:50:40.823Z,416
2022-08-02T01:50:50.814Z,416
2022-08-02T01:51:00.894Z,417
2022-08-02T01:51:10.810Z,417
2022-08-02T01:51:20.823Z,418
2022-08-02T01:51:32.897Z,417
2022-08-02T01:51:40.850Z,416
2022-08-02T01:51:50.857Z,415
2022-08-02T01:52:00.880Z,415
2022-08-02T01:52:11.086Z,414
2022-08-02T01:52:20.967Z,415
2022-08-02T01:52:30.927Z,415
2022-08-02T01:52:40.920Z,415
2022-08-02T01:52:53.432Z,416
2022-08-02T01:53:00.943Z,417
2022-08-02T01:53:10.960Z,418
2022-08-02T01:53:20.969Z,417
2022-08-02T01:53:30.985Z,417
2022-08-02T01:53:41.012Z,417
2022-08-02T01:53:51.010Z,418
2022-08-02T01:54:01.023Z,418
2022-08-02T01:54:11.037Z,418
2022-08-02T01:54:21.049Z,418
2022-08-02T01:54:31.059Z,419
2022-08-02T01:54:41.071Z,418
2022-08-02T01:54:51.087Z,418
2022-08-02T01:55:01.110Z,420
2022-08-02T01:55:19.014Z,420
2022-08-02T01:55:21.110Z,418
2022-08-02T01:55:35.099Z,421
2022-08-02T01:55:58.203Z,423
2022-08-02T01:55:58.410Z,422
2022-08-02T01:56:01.148Z,424
2022-08-02T01:56:11.161Z,424
2022-08-02T01:56:21.187Z,425
2022-08-02T01:56:31.198Z,426
2022-08-02T01:56:41.201Z,427
2022-08-02T01:56:51.214Z,429
2022-08-02T01:57:01.221Z,428
2022-08-02T01:57:11.249Z,427
2022-08-02T01:57:21.258Z,427
2022-08-02T01:57:31.266Z,428
2022-08-02T01:57:42.074Z,427
2022-08-02T01:57:51.292Z,426
2022-08-02T01:58:01.301Z,427
2022-08-02T01:58:11.310Z,426
2022-08-02T01:58:21.393Z,426
2022-08-02T01:58:31.333Z,427
2022-08-02T01:58:41.352Z,429
2022-08-02T01:58:51.368Z,428
2022-08-02T01:59:01.383Z,428
2022-08-02T01:59:11.385Z,428
2022-08-02T01:59:21.403Z,428
2022-08-02T01:59:31.416Z,428
2022-08-02T01:59:41.422Z,428
2022-08-02T01:59:51.432Z,427
2022-08-02T02:00:01.758Z,426
2022-08-02T02:00:11.457Z,426
2022-08-02T02:00:21.483Z,427
2022-08-02T02:00:31.608Z,425
2022-08-02T02:00:41.497Z,426
2022-08-02T02:00:51.612Z,426
2022-08-02T02:01:01.574Z,427
2022-08-02T02:01:15.150Z,425
2022-08-02T02:01:21.614Z,424
2022-08-02T02:01:31.597Z,423
2022-08-02T02:01:41.693Z,424
2022-08-02T02:01:51.710Z,424
2022-08-02T02:02:01.583Z,424
2022-08-02T02:02:11.755Z,425
2022-08-02T02:02:21.602Z,424
2022-08-02T02:02:31.956Z,424
2022-08-02T02:02:41.624Z,422
2022-08-02T02:02:51.642Z,423
2022-08-02T02:03:01.647Z,423
2022-08-02T02:03:11.663Z,423
2022-08-02T02:03:21.680Z,423
2022-08-02T02:03:31.690Z,421
2022-08-02T02:03:41.925Z,420
2022-08-02T02:03:51.711Z,421
2022-08-02T02:04:01.723Z,423
2022-08-02T02:04:11.730Z,424
2022-08-02T02:04:21.748Z,423
2022-08-02T02:04:31.772Z,425
2022-08-02T02:04:41.763Z,427
2022-08-02T02:04:51.780Z,425
2022-08-02T02:05:01.802Z,426
2022-08-02T02:05:11.801Z,427
2022-08-02T02:05:21.821Z,427
2022-08-02T02:05:31.833Z,428
2022-08-02T02:05:41.841Z,430
2022-08-02T02:05:51.857Z,432
2022-08-02T02:06:01.914Z,433
2022-08-02T02:06:11.884Z,433
2022-08-02T02:06:21.980Z,431
2022-08-02T02:06:31.903Z,431
2022-08-02T02:06:41.911Z,433
2022-08-02T02:06:51.933Z,434
2022-08-02T02:07:02.022Z,433
2022-08-02T02:07:12.054Z,433
2022-08-02T02:07:21.972Z,433
2022-08-02T02:07:31.982Z,434
2022-08-02T02:07:41.991Z,434
2022-08-02T02:07:52.046Z,435
2022-08-02T02:08:02.024Z,434
2022-08-02T02:08:12.061Z,435
2022-08-02T02:08:27.426Z,436
2022-08-02T02:08:32.135Z,435
2022-08-02T02:08:42.187Z,434
2022-08-02T02:08:52.106Z,434
2022-08-02T02:09:02.139Z,434
2022-08-02T02:09:12.100Z,433
2022-08-02T02:09:22.210Z,435
2022-08-02T02:09:32.125Z,434
2022-08-02T02:09:50.507Z,434
2022-08-02T02:09:52.151Z,434
2022-08-02T02:10:02.165Z,434
2022-08-02T02:10:12.175Z,433
2022-08-02T02:10:22.193Z,433
2022-08-02T02:10:32.201Z,433
2022-08-02T02:10:42.218Z,432
2022-08-02T02:10:52.222Z,433
2022-08-02T02:12:05.939Z,436
2022-08-02T02:12:06.215Z,434
2022-08-02T02:12:06.392Z,434
2022-08-02T02:12:09.504Z,434
2022-08-02T02:12:10.091Z,434
2022-08-02T02:12:11.895Z,433
2022-08-02T02:12:13.077Z,436
2022-08-02T02:12:14.012Z,437
2022-08-02T02:12:22.725Z,437
2022-08-02T02:12:32.348Z,436
2022-08-02T02:12:42.365Z,435
2022-08-02T02:12:52.366Z,436
2022-08-02T02:13:02.374Z,435
2022-08-02T02:13:12.392Z,434
2022-08-02T02:13:33.332Z,434
2022-08-02T02:13:33.772Z,432
2022-08-02T02:13:42.448Z,433
2022-08-02T02:13:52.467Z,433
2022-08-02T02:14:02.461Z,433
2022-08-02T02:14:12.467Z,434
2022-08-02T02:14:22.486Z,432
2022-08-02T02:14:32.582Z,433
2022-08-02T02:14:42.499Z,432
2022-08-02T02:14:52.510Z,433
2022-08-02T02:15:02.548Z,434
2022-08-02T02:15:12.545Z,432
2022-08-02T02:15:22.550Z,433
2022-08-02T02:15:32.572Z,433
2022-08-02T02:15:42.576Z,432
2022-08-02T02:15:52.593Z,433
2022-08-02T02:16:02.604Z,433
2022-08-02T02:16:12.617Z,432
2022-08-02T02:16:22.642Z,432
2022-08-02T02:16:32.656Z,431
2022-08-02T02:16:42.657Z,430
2022-08-02T02:16:52.736Z,433
2022-08-02T02:17:02.680Z,433
2022-08-02T02:17:50.549Z,433
2022-08-02T02:17:52.875Z,431
2022-08-02T02:17:52.875Z,431
2022-08-02T02:17:52.906Z,426
2022-08-02T02:18:13.229Z,424
2022-08-02T02:18:13.281Z,421
2022-08-02T02:18:13.850Z,423
2022-08-02T02:18:22.778Z,424
2022-08-02T02:18:32.797Z,425
2022-08-02T02:18:42.800Z,427
2022-08-02T02:18:52.814Z,427
2022-08-02T02:19:02.827Z,428
2022-08-02T02:19:12.839Z,426